sensor_id;sensor_type;location;lat;lon;timestamp;temperature;humidity
580;DHT22;276;48.392;9.950;2022-07-21T00:01:03;23.80;99.90
580;DHT22;276;48.392;9.950;2022-07-21T00:03:31;23.70;99.90
580;DHT22;276;48.392;9.950;2022-07-21T00:05:59;23.70;99.90
580;DHT22;276;48.392;9.950;2022-07-21T00:08:25;23.80;99.90
580;DHT22;276;48.392;9.950;2022-07-21T00:10:51;23.70;99.90
580;DHT22;276;48.392;9.950;2022-07-21T00:13:18;23.70;99.90
580;DHT22;276;48.392;9.950;2022-07-21T00:15:44;23.70;99.90
580;DHT22;276;48.392;9.950;2022-07-21T00:18:10;23.70;99.90
580;DHT22;276;48.392;9.950;2022-07-21T00:20:35;23.70;99.90
580;DHT22;276;48.392;9.950;2022-07-21T00:23:01;23.70;99.90
580;DHT22;276;48.392;9.950;2022-07-21T00:25:27;23.70;99.90
580;DHT22;276;48.392;9.950;2022-07-21T00:27:52;23.70;99.90
580;DHT22;276;48.392;9.950;2022-07-21T00:30:21;23.70;99.90
580;DHT22;276;48.392;9.950;2022-07-21T00:32:46;23.60;99.90
580;DHT22;276;48.392;9.950;2022-07-21T00:35:15;23.60;99.90
580;DHT22;276;48.392;9.950;2022-07-21T00:37:41;23.60;99.90
580;DHT22;276;48.392;9.950;2022-07-21T00:40:10;23.60;99.90
580;DHT22;276;48.392;9.950;2022-07-21T00:42:39;23.50;99.90
580;DHT22;276;48.392;9.950;2022-07-21T00:45:06;23.50;99.90
580;DHT22;276;48.392;9.950;2022-07-21T00:47:35;23.50;99.90
580;DHT22;276;48.392;9.950;2022-07-21T00:50:08;23.50;99.90
580;DHT22;276;48.392;9.950;2022-07-21T00:52:36;23.50;99.90
580;DHT22;276;48.392;9.950;2022-07-21T00:55:06;23.50;99.90
580;DHT22;276;48.392;9.950;2022-07-21T00:57:33;23.50;99.90
580;DHT22;276;48.392;9.950;2022-07-21T01:00:03;23.50;99.90
580;DHT22;276;48.392;9.950;2022-07-21T01:02:31;23.50;99.90
580;DHT22;276;48.392;9.950;2022-07-21T01:04:58;23.40;99.90
580;DHT22;276;48.392;9.950;2022-07-21T01:07:24;23.40;99.90
580;DHT22;276;48.392;9.950;2022-07-21T01:09:52;23.40;99.90
580;DHT22;276;48.392;9.950;2022-07-21T01:12:20;23.40;99.90
580;DHT22;276;48.392;9.950;2022-07-21T01:14:48;23.40;99.90
580;DHT22;276;48.392;9.950;2022-07-21T01:17:14;23.40;99.90
580;DHT22;276;48.392;9.950;2022-07-21T01:19:40;23.40;99.90
580;DHT22;276;48.392;9.950;2022-07-21T01:22:06;23.40;99.90
580;DHT22;276;48.392;9.950;2022-07-21T01:24:32;23.40;99.90
580;DHT22;276;48.392;9.950;2022-07-21T01:26:57;23.40;99.90
580;DHT22;276;48.392;9.950;2022-07-21T01:29:26;23.40;99.90
580;DHT22;276;48.392;9.950;2022-07-21T01:31:51;23.40;99.90
580;DHT22;276;48.392;9.950;2022-07-21T01:34:17;23.40;99.90
580;DHT22;276;48.392;9.950;2022-07-21T01:36:46;23.40;99.90
580;DHT22;276;48.392;9.950;2022-07-21T01:39:15;23.40;99.90
580;DHT22;276;48.392;9.950;2022-07-21T01:42:00;23.40;99.90
580;DHT22;276;48.392;9.950;2022-07-21T01:44:26;23.40;99.90
580;DHT22;276;48.392;9.950;2022-07-21T01:46:54;23.40;99.90
580;DHT22;276;48.392;9.950;2022-07-21T01:49:22;23.40;99.90
580;DHT22;276;48.392;9.950;2022-07-21T01:51:48;23.40;99.90
580;DHT22;276;48.392;9.950;2022-07-21T01:54:14;23.40;99.90
580;DHT22;276;48.392;9.950;2022-07-21T01:56:40;23.30;99.90
580;DHT22;276;48.392;9.950;2022-07-21T01:59:06;23.40;99.90
580;DHT22;276;48.392;9.950;2022-07-21T02:01:33;23.40;99.90
580;DHT22;276;48.392;9.950;2022-07-21T02:04:01;23.40;99.90
580;DHT22;276;48.392;9.950;2022-07-21T02:06:28;23.40;99.90
580;DHT22;276;48.392;9.950;2022-07-21T02:08:56;23.40;99.90
580;DHT22;276;48.392;9.950;2022-07-21T02:11:24;23.40;99.90
580;DHT22;276;48.392;9.950;2022-07-21T02:13:49;23.40;99.90
580;DHT22;276;48.392;9.950;2022-07-21T02:16:15;23.40;99.90
580;DHT22;276;48.392;9.950;2022-07-21T02:18:41;23.30;99.90
580;DHT22;276;48.392;9.950;2022-07-21T02:21:12;23.30;99.90
580;DHT22;276;48.392;9.950;2022-07-21T02:23:39;23.30;99.90
580;DHT22;276;48.392;9.950;2022-07-21T02:26:07;23.30;99.90
580;DHT22;276;48.392;9.950;2022-07-21T02:28:35;23.30;99.90
580;DHT22;276;48.392;9.950;2022-07-21T02:31:03;23.30;99.90
580;DHT22;276;48.392;9.950;2022-07-21T02:33:32;23.30;99.90
580;DHT22;276;48.392;9.950;2022-07-21T02:35:57;23.30;99.90
580;DHT22;276;48.392;9.950;2022-07-21T02:38:25;23.20;99.90
580;DHT22;276;48.392;9.950;2022-07-21T02:40:51;23.20;99.90
580;DHT22;276;48.392;9.950;2022-07-21T02:43:17;23.30;99.90
580;DHT22;276;48.392;9.950;2022-07-21T02:45:45;23.30;99.90
580;DHT22;276;48.392;9.950;2022-07-21T02:48:11;23.30;99.90
580;DHT22;276;48.392;9.950;2022-07-21T02:50:42;23.30;99.90
580;DHT22;276;48.392;9.950;2022-07-21T02:53:13;23.30;99.90
580;DHT22;276;48.392;9.950;2022-07-21T02:55:43;23.20;99.90
580;DHT22;276;48.392;9.950;2022-07-21T02:58:17;23.30;99.90
580;DHT22;276;48.392;9.950;2022-07-21T03:03:14;23.30;99.90
580;DHT22;276;48.392;9.950;2022-07-21T03:05:39;23.30;99.90
580;DHT22;276;48.392;9.950;2022-07-21T03:08:06;23.30;99.90
580;DHT22;276;48.392;9.950;2022-07-21T03:10:32;23.40;99.90
580;DHT22;276;48.392;9.950;2022-07-21T03:13:01;23.30;99.90
580;DHT22;276;48.392;9.950;2022-07-21T03:15:29;23.30;99.90
580;DHT22;276;48.392;9.950;2022-07-21T03:17:56;23.30;99.90
580;DHT22;276;48.392;9.950;2022-07-21T03:20:26;23.30;99.90
580;DHT22;276;48.392;9.950;2022-07-21T03:22:52;23.30;99.90
580;DHT22;276;48.392;9.950;2022-07-21T03:25:21;23.30;99.90
580;DHT22;276;48.392;9.950;2022-07-21T03:27:49;23.30;99.90
580;DHT22;276;48.392;9.950;2022-07-21T03:30:17;23.30;99.90
580;DHT22;276;48.392;9.950;2022-07-21T03:32:46;23.40;99.90
580;DHT22;276;48.392;9.950;2022-07-21T03:35:12;23.40;99.90
580;DHT22;276;48.392;9.950;2022-07-21T03:37:43;23.40;99.90
580;DHT22;276;48.392;9.950;2022-07-21T03:40:13;23.40;99.90
580;DHT22;276;48.392;9.950;2022-07-21T03:42:44;23.40;99.90
580;DHT22;276;48.392;9.950;2022-07-21T03:45:10;23.40;99.90
580;DHT22;276;48.392;9.950;2022-07-21T03:47:40;23.30;99.90
580;DHT22;276;48.392;9.950;2022-07-21T03:50:09;23.40;99.90
580;DHT22;276;48.392;9.950;2022-07-21T03:52:42;23.40;99.90
580;DHT22;276;48.392;9.950;2022-07-21T03:55:10;23.40;99.90
580;DHT22;276;48.392;9.950;2022-07-21T03:57:40;23.40;99.90
580;DHT22;276;48.392;9.950;2022-07-21T04:00:10;23.40;99.90
580;DHT22;276;48.392;9.950;2022-07-21T04:02:39;23.40;99.90
580;DHT22;276;48.392;9.950;2022-07-21T04:05:10;23.40;99.90
580;DHT22;276;48.392;9.950;2022-07-21T04:07:38;23.30;99.90
580;DHT22;276;48.392;9.950;2022-07-21T04:10:05;23.30;99.90
580;DHT22;276;48.392;9.950;2022-07-21T04:12:35;23.30;99.90
580;DHT22;276;48.392;9.950;2022-07-21T04:15:07;23.30;99.90
580;DHT22;276;48.392;9.950;2022-07-21T04:17:36;23.30;99.90
580;DHT22;276;48.392;9.950;2022-07-21T04:20:05;23.30;99.90
580;DHT22;276;48.392;9.950;2022-07-21T04:22:37;23.30;99.90
580;DHT22;276;48.392;9.950;2022-07-21T04:25:06;23.30;99.90
580;DHT22;276;48.392;9.950;2022-07-21T04:27:35;23.40;99.90
580;DHT22;276;48.392;9.950;2022-07-21T04:30:03;23.40;99.90
580;DHT22;276;48.392;9.950;2022-07-21T04:32:28;23.30;99.90
580;DHT22;276;48.392;9.950;2022-07-21T04:34:54;23.40;99.90
580;DHT22;276;48.392;9.950;2022-07-21T04:37:22;23.30;99.90
580;DHT22;276;48.392;9.950;2022-07-21T04:39:50;23.40;99.90
580;DHT22;276;48.392;9.950;2022-07-21T04:42:18;23.40;99.90
580;DHT22;276;48.392;9.950;2022-07-21T04:44:44;23.40;99.90
580;DHT22;276;48.392;9.950;2022-07-21T04:47:10;23.40;99.90
580;DHT22;276;48.392;9.950;2022-07-21T04:49:35;23.50;99.90
580;DHT22;276;48.392;9.950;2022-07-21T04:52:01;23.50;99.90
580;DHT22;276;48.392;9.950;2022-07-21T04:54:29;23.40;99.90
580;DHT22;276;48.392;9.950;2022-07-21T04:56:57;23.40;99.90
580;DHT22;276;48.392;9.950;2022-07-21T04:59:23;23.30;99.90
580;DHT22;276;48.392;9.950;2022-07-21T05:01:52;23.30;99.90
580;DHT22;276;48.392;9.950;2022-07-21T05:04:18;23.40;99.90
580;DHT22;276;48.392;9.950;2022-07-21T05:06:43;23.30;99.90
580;DHT22;276;48.392;9.950;2022-07-21T05:09:14;23.40;99.90
580;DHT22;276;48.392;9.950;2022-07-21T05:11:42;23.40;99.90
580;DHT22;276;48.392;9.950;2022-07-21T05:14:08;23.40;99.90
580;DHT22;276;48.392;9.950;2022-07-21T05:16:34;23.40;99.90
580;DHT22;276;48.392;9.950;2022-07-21T05:18:59;23.40;99.90
580;DHT22;276;48.392;9.950;2022-07-21T05:21:25;23.40;99.90
580;DHT22;276;48.392;9.950;2022-07-21T05:23:53;23.50;99.90
580;DHT22;276;48.392;9.950;2022-07-21T05:26:21;23.50;99.90
580;DHT22;276;48.392;9.950;2022-07-21T05:28:46;23.40;99.90
580;DHT22;276;48.392;9.950;2022-07-21T05:31:14;23.40;99.90
580;DHT22;276;48.392;9.950;2022-07-21T05:33:40;23.30;99.90
580;DHT22;276;48.392;9.950;2022-07-21T05:36:06;23.30;99.90
580;DHT22;276;48.392;9.950;2022-07-21T05:38:31;23.30;99.90
580;DHT22;276;48.392;9.950;2022-07-21T05:40:57;23.30;99.90
580;DHT22;276;48.392;9.950;2022-07-21T05:43:28;23.30;99.90
580;DHT22;276;48.392;9.950;2022-07-21T05:45:53;23.30;99.90
580;DHT22;276;48.392;9.950;2022-07-21T05:48:21;23.20;99.90
580;DHT22;276;48.392;9.950;2022-07-21T05:50:47;23.20;99.90
580;DHT22;276;48.392;9.950;2022-07-21T05:53:15;23.20;99.90
580;DHT22;276;48.392;9.950;2022-07-21T05:55:41;23.20;99.90
580;DHT22;276;48.392;9.950;2022-07-21T05:58:07;23.20;99.90
580;DHT22;276;48.392;9.950;2022-07-21T06:00:33;23.30;99.90
580;DHT22;276;48.392;9.950;2022-07-21T06:02:58;23.30;99.90
580;DHT22;276;48.392;9.950;2022-07-21T06:05:29;23.40;99.90
580;DHT22;276;48.392;9.950;2022-07-21T06:07:57;23.40;99.90
580;DHT22;276;48.392;9.950;2022-07-21T06:10:22;23.40;99.90
580;DHT22;276;48.392;9.950;2022-07-21T06:12:48;23.50;99.90
580;DHT22;276;48.392;9.950;2022-07-21T06:15:14;23.60;99.90
580;DHT22;276;48.392;9.950;2022-07-21T06:17:46;23.60;99.90
580;DHT22;276;48.392;9.950;2022-07-21T06:20:14;23.70;99.90
580;DHT22;276;48.392;9.950;2022-07-21T06:22:39;23.70;99.90
580;DHT22;276;48.392;9.950;2022-07-21T06:25:08;23.80;99.90
580;DHT22;276;48.392;9.950;2022-07-21T06:27:33;23.90;99.90
580;DHT22;276;48.392;9.950;2022-07-21T06:29:59;24.00;99.90
580;DHT22;276;48.392;9.950;2022-07-21T06:32:25;24.10;99.90
580;DHT22;276;48.392;9.950;2022-07-21T06:34:51;24.20;99.90
580;DHT22;276;48.392;9.950;2022-07-21T06:37:22;24.20;99.90
580;DHT22;276;48.392;9.950;2022-07-21T06:39:48;24.20;99.90
580;DHT22;276;48.392;9.950;2022-07-21T06:42:15;24.20;99.90
580;DHT22;276;48.392;9.950;2022-07-21T06:44:41;24.20;99.90
580;DHT22;276;48.392;9.950;2022-07-21T06:47:09;24.20;99.90
580;DHT22;276;48.392;9.950;2022-07-21T06:49:35;24.20;99.90
580;DHT22;276;48.392;9.950;2022-07-21T06:52:03;24.30;99.90
580;DHT22;276;48.392;9.950;2022-07-21T06:54:29;24.30;99.90
580;DHT22;276;48.392;9.950;2022-07-21T06:56:57;24.30;99.90
580;DHT22;276;48.392;9.950;2022-07-21T06:59:22;24.30;99.90
580;DHT22;276;48.392;9.950;2022-07-21T07:01:50;24.30;99.90
580;DHT22;276;48.392;9.950;2022-07-21T07:04:16;24.30;99.90
580;DHT22;276;48.392;9.950;2022-07-21T07:06:41;24.30;99.90
580;DHT22;276;48.392;9.950;2022-07-21T07:09:07;24.30;99.90
580;DHT22;276;48.392;9.950;2022-07-21T07:11:35;24.30;99.90
580;DHT22;276;48.392;9.950;2022-07-21T07:14:01;24.30;99.90
580;DHT22;276;48.392;9.950;2022-07-21T07:16:29;24.40;99.90
580;DHT22;276;48.392;9.950;2022-07-21T07:18:57;24.40;99.90
580;DHT22;276;48.392;9.950;2022-07-21T07:21:22;24.40;99.90
580;DHT22;276;48.392;9.950;2022-07-21T07:23:48;24.40;99.90
580;DHT22;276;48.392;9.950;2022-07-21T07:26:16;24.50;99.90
580;DHT22;276;48.392;9.950;2022-07-21T07:28:44;24.60;99.90
580;DHT22;276;48.392;9.950;2022-07-21T07:31:12;24.60;99.90
580;DHT22;276;48.392;9.950;2022-07-21T07:33:38;24.60;99.90
580;DHT22;276;48.392;9.950;2022-07-21T07:36:05;24.70;99.90
580;DHT22;276;48.392;9.950;2022-07-21T07:38:32;24.90;99.90
580;DHT22;276;48.392;9.950;2022-07-21T07:41:00;24.90;99.90
580;DHT22;276;48.392;9.950;2022-07-21T07:43:26;25.00;99.90
580;DHT22;276;48.392;9.950;2022-07-21T07:45:52;25.10;99.90
580;DHT22;276;48.392;9.950;2022-07-21T07:48:17;25.10;99.90
580;DHT22;276;48.392;9.950;2022-07-21T07:50:45;25.20;99.90
580;DHT22;276;48.392;9.950;2022-07-21T07:53:11;25.20;99.20
580;DHT22;276;48.392;9.950;2022-07-21T07:55:36;25.30;98.90
580;DHT22;276;48.392;9.950;2022-07-21T07:58:02;25.30;98.60
580;DHT22;276;48.392;9.950;2022-07-21T08:00:28;25.40;98.30
580;DHT22;276;48.392;9.950;2022-07-21T08:02:53;25.40;98.30
580;DHT22;276;48.392;9.950;2022-07-21T08:05:23;25.50;97.60
580;DHT22;276;48.392;9.950;2022-07-21T08:07:52;25.60;97.80
580;DHT22;276;48.392;9.950;2022-07-21T08:10:17;25.70;97.60
580;DHT22;276;48.392;9.950;2022-07-21T08:12:43;25.80;97.70
580;DHT22;276;48.392;9.950;2022-07-21T08:15:09;25.80;97.50
580;DHT22;276;48.392;9.950;2022-07-21T08:17:35;25.80;97.10
580;DHT22;276;48.392;9.950;2022-07-21T08:20:00;25.80;97.00
580;DHT22;276;48.392;9.950;2022-07-21T08:22:26;25.90;97.10
580;DHT22;276;48.392;9.950;2022-07-21T08:24:54;26.00;96.80
580;DHT22;276;48.392;9.950;2022-07-21T08:27:20;26.10;96.00
580;DHT22;276;48.392;9.950;2022-07-21T08:29:48;26.20;95.90
580;DHT22;276;48.392;9.950;2022-07-21T08:32:16;26.20;95.00
580;DHT22;276;48.392;9.950;2022-07-21T08:34:44;26.20;95.90
580;DHT22;276;48.392;9.950;2022-07-21T08:37:09;26.30;96.30
580;DHT22;276;48.392;9.950;2022-07-21T08:39:35;26.30;95.10
580;DHT22;276;48.392;9.950;2022-07-21T08:42:01;26.40;95.20
580;DHT22;276;48.392;9.950;2022-07-21T08:44:29;26.40;94.80
580;DHT22;276;48.392;9.950;2022-07-21T08:46:54;26.40;94.50
580;DHT22;276;48.392;9.950;2022-07-21T08:49:24;26.40;94.40
580;DHT22;276;48.392;9.950;2022-07-21T08:51:50;26.30;94.10
580;DHT22;276;48.392;9.950;2022-07-21T08:54:22;26.30;94.90
580;DHT22;276;48.392;9.950;2022-07-21T08:56:51;26.20;94.30
580;DHT22;276;48.392;9.950;2022-07-21T08:59:20;26.20;94.40
580;DHT22;276;48.392;9.950;2022-07-21T09:01:48;26.20;93.90
580;DHT22;276;48.392;9.950;2022-07-21T09:04:25;26.30;93.90
580;DHT22;276;48.392;9.950;2022-07-21T09:06:58;26.40;93.20
580;DHT22;276;48.392;9.950;2022-07-21T09:09:26;26.40;92.60
580;DHT22;276;48.392;9.950;2022-07-21T09:11:54;26.40;93.30
580;DHT22;276;48.392;9.950;2022-07-21T09:14:26;26.40;92.70
580;DHT22;276;48.392;9.950;2022-07-21T09:16:57;26.50;92.80
580;DHT22;276;48.392;9.950;2022-07-21T09:19:24;26.60;92.60
580;DHT22;276;48.392;9.950;2022-07-21T09:21:52;26.60;93.10
580;DHT22;276;48.392;9.950;2022-07-21T09:24:35;26.80;91.30
580;DHT22;276;48.392;9.950;2022-07-21T09:34:44;27.00;92.40
580;DHT22;276;48.392;9.950;2022-07-21T09:37:10;27.00;92.40
580;DHT22;276;48.392;9.950;2022-07-21T09:42:33;27.10;91.80
580;DHT22;276;48.392;9.950;2022-07-21T09:45:04;27.10;92.20
580;DHT22;276;48.392;9.950;2022-07-21T09:47:31;27.10;92.30
580;DHT22;276;48.392;9.950;2022-07-21T09:49:58;27.30;91.90
580;DHT22;276;48.392;9.950;2022-07-21T09:52:28;27.50;91.50
580;DHT22;276;48.392;9.950;2022-07-21T09:54:57;27.60;90.10
580;DHT22;276;48.392;9.950;2022-07-21T09:57:23;27.70;89.90
580;DHT22;276;48.392;9.950;2022-07-21T09:59:49;27.70;88.40
580;DHT22;276;48.392;9.950;2022-07-21T10:05:06;27.80;86.60
580;DHT22;276;48.392;9.950;2022-07-21T10:07:38;27.90;85.50
580;DHT22;276;48.392;9.950;2022-07-21T10:10:04;28.00;86.20
580;DHT22;276;48.392;9.950;2022-07-21T10:12:30;28.10;86.60
580;DHT22;276;48.392;9.950;2022-07-21T10:14:55;28.30;86.60
580;DHT22;276;48.392;9.950;2022-07-21T10:17:25;28.30;82.50
580;DHT22;276;48.392;9.950;2022-07-21T10:25:40;28.20;84.60
580;DHT22;276;48.392;9.950;2022-07-21T10:30:44;28.30;86.40
580;DHT22;276;48.392;9.950;2022-07-21T10:33:11;28.30;86.00
580;DHT22;276;48.392;9.950;2022-07-21T10:35:45;28.30;85.10
580;DHT22;276;48.392;9.950;2022-07-21T10:38:40;28.30;80.70
580;DHT22;276;48.392;9.950;2022-07-21T10:41:06;28.10;80.60
580;DHT22;276;48.392;9.950;2022-07-21T10:43:35;28.00;81.70
580;DHT22;276;48.392;9.950;2022-07-21T10:46:04;27.80;81.00
580;DHT22;276;48.392;9.950;2022-07-21T10:48:49;27.60;82.60
580;DHT22;276;48.392;9.950;2022-07-21T10:51:16;27.50;81.90
580;DHT22;276;48.392;9.950;2022-07-21T10:53:42;27.50;82.90
580;DHT22;276;48.392;9.950;2022-07-21T10:56:28;27.50;83.80
580;DHT22;276;48.392;9.950;2022-07-21T10:58:57;27.50;83.80
580;DHT22;276;48.392;9.950;2022-07-21T11:01:25;27.50;83.60
580;DHT22;276;48.392;9.950;2022-07-21T11:04:13;27.60;84.40
580;DHT22;276;48.392;9.950;2022-07-21T11:06:43;27.70;84.50
580;DHT22;276;48.392;9.950;2022-07-21T11:09:10;27.70;82.50
580;DHT22;276;48.392;9.950;2022-07-21T11:11:59;27.80;83.90
580;DHT22;276;48.392;9.950;2022-07-21T11:14:40;27.80;82.50
580;DHT22;276;48.392;9.950;2022-07-21T11:17:10;27.90;82.90
580;DHT22;276;48.392;9.950;2022-07-21T11:19:47;28.00;81.90
580;DHT22;276;48.392;9.950;2022-07-21T11:22:23;28.00;82.20
580;DHT22;276;48.392;9.950;2022-07-21T11:27:20;27.90;82.50
580;DHT22;276;48.392;9.950;2022-07-21T11:29:51;28.00;81.10
580;DHT22;276;48.392;9.950;2022-07-21T11:32:17;27.90;81.00
580;DHT22;276;48.392;9.950;2022-07-21T11:34:47;27.80;81.00
580;DHT22;276;48.392;9.950;2022-07-21T11:37:18;27.80;82.20
580;DHT22;276;48.392;9.950;2022-07-21T11:39:44;27.70;81.90
580;DHT22;276;48.392;9.950;2022-07-21T11:42:14;27.60;82.30
580;DHT22;276;48.392;9.950;2022-07-21T11:44:41;27.70;82.80
580;DHT22;276;48.392;9.950;2022-07-21T11:47:11;27.70;82.40
580;DHT22;276;48.392;9.950;2022-07-21T11:49:37;27.70;84.30
580;DHT22;276;48.392;9.950;2022-07-21T11:52:06;27.90;84.20
580;DHT22;276;48.392;9.950;2022-07-21T11:54:38;28.00;83.10
580;DHT22;276;48.392;9.950;2022-07-21T11:57:08;28.10;82.70
580;DHT22;276;48.392;9.950;2022-07-21T11:59:35;28.10;82.60
580;DHT22;276;48.392;9.950;2022-07-21T12:02:05;28.20;82.00
580;DHT22;276;48.392;9.950;2022-07-21T12:07:06;28.20;80.70
580;DHT22;276;48.392;9.950;2022-07-21T12:09:33;28.20;81.10
580;DHT22;276;48.392;9.950;2022-07-21T12:11:59;28.10;80.20
580;DHT22;276;48.392;9.950;2022-07-21T12:14:45;28.10;81.30
580;DHT22;276;48.392;9.950;2022-07-21T12:17:11;28.10;80.40
580;DHT22;276;48.392;9.950;2022-07-21T12:19:40;28.00;81.30
580;DHT22;276;48.392;9.950;2022-07-21T12:22:06;28.10;82.80
580;DHT22;276;48.392;9.950;2022-07-21T12:24:55;28.20;82.50
580;DHT22;276;48.392;9.950;2022-07-21T12:27:24;28.30;83.00
580;DHT22;276;48.392;9.950;2022-07-21T12:29:52;28.50;79.60
580;DHT22;276;48.392;9.950;2022-07-21T12:32:43;28.60;79.00
580;DHT22;276;48.392;9.950;2022-07-21T12:35:20;28.70;78.70
580;DHT22;276;48.392;9.950;2022-07-21T12:37:56;28.70;79.20
580;DHT22;276;48.392;9.950;2022-07-21T12:40:24;28.70;77.10
580;DHT22;276;48.392;9.950;2022-07-21T12:43:03;28.70;76.00
580;DHT22;276;48.392;9.950;2022-07-21T12:45:29;28.80;76.10
580;DHT22;276;48.392;9.950;2022-07-21T12:48:12;28.70;75.40
580;DHT22;276;48.392;9.950;2022-07-21T12:50:38;28.70;77.10
580;DHT22;276;48.392;9.950;2022-07-21T12:53:13;28.70;77.30
580;DHT22;276;48.392;9.950;2022-07-21T12:55:39;28.70;77.60
580;DHT22;276;48.392;9.950;2022-07-21T12:58:07;28.70;75.20
580;DHT22;276;48.392;9.950;2022-07-21T13:00:35;28.80;75.70
580;DHT22;276;48.392;9.950;2022-07-21T13:03:01;28.80;77.30
580;DHT22;276;48.392;9.950;2022-07-21T13:05:27;28.80;77.20
580;DHT22;276;48.392;9.950;2022-07-21T13:07:52;28.80;77.70
580;DHT22;276;48.392;9.950;2022-07-21T13:10:18;28.90;75.30
580;DHT22;276;48.392;9.950;2022-07-21T13:12:44;28.90;73.80
580;DHT22;276;48.392;9.950;2022-07-21T13:15:12;28.90;73.40
580;DHT22;276;48.392;9.950;2022-07-21T13:17:38;28.80;74.80
580;DHT22;276;48.392;9.950;2022-07-21T13:20:04;28.70;75.20
580;DHT22;276;48.392;9.950;2022-07-21T13:22:33;28.70;76.30
580;DHT22;276;48.392;9.950;2022-07-21T13:24:58;28.80;77.00
580;DHT22;276;48.392;9.950;2022-07-21T13:27:27;28.80;76.40
580;DHT22;276;48.392;9.950;2022-07-21T13:29:55;28.80;76.10
580;DHT22;276;48.392;9.950;2022-07-21T13:32:23;28.80;76.40
580;DHT22;276;48.392;9.950;2022-07-21T13:34:48;28.90;76.60
580;DHT22;276;48.392;9.950;2022-07-21T13:37:16;29.00;76.20
580;DHT22;276;48.392;9.950;2022-07-21T13:39:44;29.00;75.20
580;DHT22;276;48.392;9.950;2022-07-21T13:42:10;29.00;75.60
580;DHT22;276;48.392;9.950;2022-07-21T13:44:36;29.00;75.50
580;DHT22;276;48.392;9.950;2022-07-21T13:47:02;28.90;75.50
580;DHT22;276;48.392;9.950;2022-07-21T13:49:30;28.80;75.90
580;DHT22;276;48.392;9.950;2022-07-21T13:51:56;28.80;77.00
580;DHT22;276;48.392;9.950;2022-07-21T13:54:22;29.00;75.00
580;DHT22;276;48.392;9.950;2022-07-21T13:56:50;28.80;75.20
580;DHT22;276;48.392;9.950;2022-07-21T13:59:18;28.80;75.40
580;DHT22;276;48.392;9.950;2022-07-21T14:01:46;28.70;75.00
580;DHT22;276;48.392;9.950;2022-07-21T14:04:12;28.70;76.20
580;DHT22;276;48.392;9.950;2022-07-21T14:06:38;28.70;73.70
580;DHT22;276;48.392;9.950;2022-07-21T14:09:04;28.80;73.40
580;DHT22;276;48.392;9.950;2022-07-21T14:11:29;28.90;73.40
580;DHT22;276;48.392;9.950;2022-07-21T14:13:57;28.90;74.00
580;DHT22;276;48.392;9.950;2022-07-21T14:16:23;29.10;73.90
580;DHT22;276;48.392;9.950;2022-07-21T14:18:49;29.10;74.10
580;DHT22;276;48.392;9.950;2022-07-21T14:21:16;29.20;71.50
580;DHT22;276;48.392;9.950;2022-07-21T14:23:42;29.20;70.30
580;DHT22;276;48.392;9.950;2022-07-21T14:26:08;29.10;70.40
580;DHT22;276;48.392;9.950;2022-07-21T14:28:33;29.10;70.20
580;DHT22;276;48.392;9.950;2022-07-21T14:30:59;29.10;70.70
580;DHT22;276;48.392;9.950;2022-07-21T14:33:27;29.00;71.40
580;DHT22;276;48.392;9.950;2022-07-21T14:35:58;29.00;71.70
580;DHT22;276;48.392;9.950;2022-07-21T14:38:23;29.00;71.50
580;DHT22;276;48.392;9.950;2022-07-21T14:40:51;29.00;72.60
580;DHT22;276;48.392;9.950;2022-07-21T14:43:17;29.00;73.10
580;DHT22;276;48.392;9.950;2022-07-21T14:45:42;29.00;72.70
580;DHT22;276;48.392;9.950;2022-07-21T14:48:08;29.00;71.90
580;DHT22;276;48.392;9.950;2022-07-21T14:50:34;29.00;72.20
580;DHT22;276;48.392;9.950;2022-07-21T14:53:03;29.00;72.10
580;DHT22;276;48.392;9.950;2022-07-21T14:55:34;29.00;71.80
580;DHT22;276;48.392;9.950;2022-07-21T14:57:59;29.00;71.40
580;DHT22;276;48.392;9.950;2022-07-21T15:00:27;28.90;70.80
580;DHT22;276;48.392;9.950;2022-07-21T15:02:55;28.90;72.10
580;DHT22;276;48.392;9.950;2022-07-21T15:05:26;28.90;69.70
580;DHT22;276;48.392;9.950;2022-07-21T15:07:54;28.80;69.10
580;DHT22;276;48.392;9.950;2022-07-21T15:10:22;28.80;69.80
580;DHT22;276;48.392;9.950;2022-07-21T15:12:47;28.80;70.20
580;DHT22;276;48.392;9.950;2022-07-21T15:15:13;28.80;69.40
580;DHT22;276;48.392;9.950;2022-07-21T15:17:39;28.90;68.80
580;DHT22;276;48.392;9.950;2022-07-21T15:20:06;28.90;68.60
580;DHT22;276;48.392;9.950;2022-07-21T15:22:33;28.90;69.20
580;DHT22;276;48.392;9.950;2022-07-21T15:25:04;29.00;68.70
580;DHT22;276;48.392;9.950;2022-07-21T15:27:38;29.00;69.00
580;DHT22;276;48.392;9.950;2022-07-21T15:30:06;29.00;68.60
580;DHT22;276;48.392;9.950;2022-07-21T15:32:32;28.90;69.40
580;DHT22;276;48.392;9.950;2022-07-21T15:34:58;28.90;68.60
580;DHT22;276;48.392;9.950;2022-07-21T15:37:24;28.90;67.20
580;DHT22;276;48.392;9.950;2022-07-21T15:39:49;28.90;67.30
580;DHT22;276;48.392;9.950;2022-07-21T15:42:15;28.90;67.50
580;DHT22;276;48.392;9.950;2022-07-21T15:44:41;28.90;68.70
580;DHT22;276;48.392;9.950;2022-07-21T15:47:07;28.90;67.00
580;DHT22;276;48.392;9.950;2022-07-21T15:49:36;28.90;67.80
580;DHT22;276;48.392;9.950;2022-07-21T15:52:04;28.90;67.80
580;DHT22;276;48.392;9.950;2022-07-21T15:54:30;29.00;68.30
580;DHT22;276;48.392;9.950;2022-07-21T15:56:59;29.00;68.80
580;DHT22;276;48.392;9.950;2022-07-21T15:59:25;29.00;68.50
580;DHT22;276;48.392;9.950;2022-07-21T16:02:07;29.00;67.50
580;DHT22;276;48.392;9.950;2022-07-21T16:04:34;28.90;68.20
580;DHT22;276;48.392;9.950;2022-07-21T16:07:00;28.90;68.70
580;DHT22;276;48.392;9.950;2022-07-21T16:09:31;29.00;67.60
580;DHT22;276;48.392;9.950;2022-07-21T16:11:57;28.90;67.00
580;DHT22;276;48.392;9.950;2022-07-21T16:14:26;28.90;67.20
580;DHT22;276;48.392;9.950;2022-07-21T16:16:52;28.90;67.70
580;DHT22;276;48.392;9.950;2022-07-21T16:19:21;28.80;67.50
580;DHT22;276;48.392;9.950;2022-07-21T16:21:48;28.80;68.10
580;DHT22;276;48.392;9.950;2022-07-21T16:24:14;28.80;67.50
580;DHT22;276;48.392;9.950;2022-07-21T16:26:40;28.80;68.00
580;DHT22;276;48.392;9.950;2022-07-21T16:29:08;28.80;68.70
580;DHT22;276;48.392;9.950;2022-07-21T16:31:37;28.80;69.10
580;DHT22;276;48.392;9.950;2022-07-21T16:34:04;28.80;69.00
580;DHT22;276;48.392;9.950;2022-07-21T16:36:30;28.80;68.10
580;DHT22;276;48.392;9.950;2022-07-21T16:38:56;28.80;68.60
580;DHT22;276;48.392;9.950;2022-07-21T16:41:22;28.80;68.80
580;DHT22;276;48.392;9.950;2022-07-21T16:43:48;28.80;69.20
580;DHT22;276;48.392;9.950;2022-07-21T16:46:13;28.80;70.20
580;DHT22;276;48.392;9.950;2022-07-21T16:48:42;28.80;70.00
580;DHT22;276;48.392;9.950;2022-07-21T16:51:08;28.80;70.20
580;DHT22;276;48.392;9.950;2022-07-21T16:53:33;28.60;70.20
580;DHT22;276;48.392;9.950;2022-07-21T16:55:59;28.60;70.80
580;DHT22;276;48.392;9.950;2022-07-21T16:58:27;28.60;71.10
580;DHT22;276;48.392;9.950;2022-07-21T17:00:53;28.50;70.70
580;DHT22;276;48.392;9.950;2022-07-21T17:03:19;28.50;70.80
580;DHT22;276;48.392;9.950;2022-07-21T17:05:47;28.50;70.60
580;DHT22;276;48.392;9.950;2022-07-21T17:08:12;28.60;71.00